KPGV/PGV METAR and TAF weather

Enter ICAO airport designator
Station Type Date Time Source
KPGV METAR 2019/12/09 00:55 UTC NOAA

KPGV 090055Z AUTO 03004KT 7SM RA BKN005 OVC012 10/09 A3030 RMK AO2


Station Type Date Time Source
KPGV Decoded METAR 2019/12/09 00:55 UTC NOAA

Pitt-Greenville Airport, NC, United States (KPGV) 35-38N 077-24W
Dec 08, 2019 - 07:55 PM EST / 2019.12.09 0055 UTC
Wind: from the NNE (030 degrees) at 5 MPH (4 KT):0
Visibility: 7 mile(s):0
Sky conditions: overcast
Weather: rain
Temperature: 50 F (10 C)
Dew Point: 48 F (9 C)
Relative Humidity: 93%
Pressure (altimeter): 30.3 in. Hg (1026 hPa)
ob: KPGV 090055Z AUTO 03004KT 7SM RA BKN005 OVC012 10/09 A3030 RMK AO2
cycle: 1

Station Type Date Time Source
KPGV TAF 2019/12/08 23:39 UTC NOAA

TAF
AMD KPGV 082236Z 0823/0918 06005KT P6SM -RA BKN015
FM090300 02004KT 3SM -SHRA SCT008 OVC015
FM091200 VRB03KT 3SM BR OVC008
FM091500 20008G13KT P6SM BKN050
AMD LTD TO CLD VIS AND WIND

Example: see airport list